sensor_id;sensor_type;location;lat;lon;timestamp;temperature;humidity
4386;DHT22;2207;53.540;10.042;2022-08-21T00:00:52;16.30;99.90
4386;DHT22;2207;53.540;10.042;2022-08-21T00:03:18;16.30;99.90
4386;DHT22;2207;53.540;10.042;2022-08-21T00:05:47;16.20;99.90
4386;DHT22;2207;53.540;10.042;2022-08-21T00:08:15;16.20;99.90
4386;DHT22;2207;53.540;10.042;2022-08-21T00:10:43;16.20;99.90
4386;DHT22;2207;53.540;10.042;2022-08-21T00:13:12;16.20;99.90
4386;DHT22;2207;53.540;10.042;2022-08-21T00:15:40;16.10;99.90
4386;DHT22;2207;53.540;10.042;2022-08-21T00:18:07;16.10;99.90
4386;DHT22;2207;53.540;10.042;2022-08-21T00:20:34;16.10;99.90
4386;DHT22;2207;53.540;10.042;2022-08-21T00:23:01;16.20;99.90
4386;DHT22;2207;53.540;10.042;2022-08-21T00:25:27;16.10;99.90
4386;DHT22;2207;53.540;10.042;2022-08-21T00:27:54;16.10;99.90
4386;DHT22;2207;53.540;10.042;2022-08-21T00:30:22;16.10;99.90
4386;DHT22;2207;53.540;10.042;2022-08-21T00:32:51;16.10;99.90
4386;DHT22;2207;53.540;10.042;2022-08-21T00:35:21;16.10;99.90
4386;DHT22;2207;53.540;10.042;2022-08-21T00:37:49;16.10;99.90
4386;DHT22;2207;53.540;10.042;2022-08-21T00:40:16;16.00;99.90
4386;DHT22;2207;53.540;10.042;2022-08-21T00:42:44;16.00;99.90
4386;DHT22;2207;53.540;10.042;2022-08-21T00:45:11;16.00;99.90
4386;DHT22;2207;53.540;10.042;2022-08-21T00:47:38;15.90;99.90
4386;DHT22;2207;53.540;10.042;2022-08-21T00:50:09;16.00;99.90
4386;DHT22;2207;53.540;10.042;2022-08-21T00:52:36;15.90;99.90
4386;DHT22;2207;53.540;10.042;2022-08-21T00:55:04;16.00;99.90
4386;DHT22;2207;53.540;10.042;2022-08-21T00:57:32;15.90;99.90
4386;DHT22;2207;53.540;10.042;2022-08-21T01:00:00;15.90;99.90
4386;DHT22;2207;53.540;10.042;2022-08-21T01:02:27;15.90;99.90
4386;DHT22;2207;53.540;10.042;2022-08-21T01:04:54;15.90;99.90
4386;DHT22;2207;53.540;10.042;2022-08-21T01:07:22;15.90;99.90
4386;DHT22;2207;53.540;10.042;2022-08-21T01:09:50;15.90;99.90
4386;DHT22;2207;53.540;10.042;2022-08-21T01:12:17;15.90;99.90
4386;DHT22;2207;53.540;10.042;2022-08-21T01:14:44;15.90;99.90
4386;DHT22;2207;53.540;10.042;2022-08-21T01:17:11;15.80;99.90
4386;DHT22;2207;53.540;10.042;2022-08-21T01:19:39;15.80;99.90
4386;DHT22;2207;53.540;10.042;2022-08-21T01:22:08;15.80;99.90
4386;DHT22;2207;53.540;10.042;2022-08-21T01:24:35;15.70;99.90
4386;DHT22;2207;53.540;10.042;2022-08-21T01:27:02;15.70;99.90
4386;DHT22;2207;53.540;10.042;2022-08-21T01:29:29;15.70;99.90
4386;DHT22;2207;53.540;10.042;2022-08-21T01:31:57;15.70;99.90
4386;DHT22;2207;53.540;10.042;2022-08-21T01:34:23;15.70;99.90
4386;DHT22;2207;53.540;10.042;2022-08-21T01:36:50;15.60;99.90
4386;DHT22;2207;53.540;10.042;2022-08-21T01:39:18;15.60;99.90
4386;DHT22;2207;53.540;10.042;2022-08-21T01:41:45;15.60;99.90
4386;DHT22;2207;53.540;10.042;2022-08-21T01:44:12;15.60;99.90
4386;DHT22;2207;53.540;10.042;2022-08-21T01:46:39;15.60;99.90
4386;DHT22;2207;53.540;10.042;2022-08-21T01:49:05;15.60;99.90
4386;DHT22;2207;53.540;10.042;2022-08-21T01:51:32;15.60;99.90
4386;DHT22;2207;53.540;10.042;2022-08-21T01:53:59;15.50;99.90
4386;DHT22;2207;53.540;10.042;2022-08-21T01:56:27;15.50;99.90
4386;DHT22;2207;53.540;10.042;2022-08-21T01:58:54;15.50;99.90
4386;DHT22;2207;53.540;10.042;2022-08-21T02:01:20;15.50;99.90
4386;DHT22;2207;53.540;10.042;2022-08-21T02:03:47;15.50;99.90
4386;DHT22;2207;53.540;10.042;2022-08-21T02:06:14;15.50;99.90
4386;DHT22;2207;53.540;10.042;2022-08-21T02:08:43;15.50;99.90
4386;DHT22;2207;53.540;10.042;2022-08-21T02:11:10;15.40;99.90
4386;DHT22;2207;53.540;10.042;2022-08-21T02:13:38;15.40;99.90
4386;DHT22;2207;53.540;10.042;2022-08-21T02:16:05;15.40;99.90
4386;DHT22;2207;53.540;10.042;2022-08-21T02:18:33;15.40;99.90
4386;DHT22;2207;53.540;10.042;2022-08-21T02:20:59;15.40;99.90
4386;DHT22;2207;53.540;10.042;2022-08-21T02:23:26;15.30;99.90
4386;DHT22;2207;53.540;10.042;2022-08-21T02:25:53;15.30;99.90
4386;DHT22;2207;53.540;10.042;2022-08-21T02:28:20;15.40;99.90
4386;DHT22;2207;53.540;10.042;2022-08-21T02:30:48;15.30;99.90
4386;DHT22;2207;53.540;10.042;2022-08-21T02:33:15;15.30;99.90
4386;DHT22;2207;53.540;10.042;2022-08-21T02:35:43;15.20;99.90
4386;DHT22;2207;53.540;10.042;2022-08-21T02:38:11;15.10;99.90
4386;DHT22;2207;53.540;10.042;2022-08-21T02:40:38;15.10;99.90
4386;DHT22;2207;53.540;10.042;2022-08-21T02:43:06;15.00;99.90
4386;DHT22;2207;53.540;10.042;2022-08-21T02:45:33;15.00;99.90
4386;DHT22;2207;53.540;10.042;2022-08-21T02:48:03;14.90;99.90
4386;DHT22;2207;53.540;10.042;2022-08-21T02:50:30;14.90;99.90
4386;DHT22;2207;53.540;10.042;2022-08-21T02:52:58;14.90;99.90
4386;DHT22;2207;53.540;10.042;2022-08-21T02:55:26;15.00;99.90
4386;DHT22;2207;53.540;10.042;2022-08-21T02:57:53;15.00;99.90
4386;DHT22;2207;53.540;10.042;2022-08-21T03:00:20;15.00;99.90
4386;DHT22;2207;53.540;10.042;2022-08-21T03:02:47;14.90;99.90
4386;DHT22;2207;53.540;10.042;2022-08-21T03:05:17;14.80;99.90
4386;DHT22;2207;53.540;10.042;2022-08-21T03:07:44;14.80;99.90
4386;DHT22;2207;53.540;10.042;2022-08-21T03:10:11;14.70;99.90
4386;DHT22;2207;53.540;10.042;2022-08-21T03:12:38;14.70;99.90
4386;DHT22;2207;53.540;10.042;2022-08-21T03:15:05;14.70;99.90
4386;DHT22;2207;53.540;10.042;2022-08-21T03:17:33;14.60;99.90
4386;DHT22;2207;53.540;10.042;2022-08-21T03:20:00;14.60;99.90
4386;DHT22;2207;53.540;10.042;2022-08-21T03:22:29;14.60;99.90
4386;DHT22;2207;53.540;10.042;2022-08-21T03:24:56;14.60;99.90
4386;DHT22;2207;53.540;10.042;2022-08-21T03:27:23;14.60;99.90
4386;DHT22;2207;53.540;10.042;2022-08-21T03:29:51;14.60;99.90
4386;DHT22;2207;53.540;10.042;2022-08-21T03:32:18;14.70;99.90
4386;DHT22;2207;53.540;10.042;2022-08-21T03:34:45;14.80;99.90
4386;DHT22;2207;53.540;10.042;2022-08-21T03:37:13;14.90;99.90
4386;DHT22;2207;53.540;10.042;2022-08-21T03:39:41;14.80;99.90
4386;DHT22;2207;53.540;10.042;2022-08-21T03:42:08;14.80;99.90
4386;DHT22;2207;53.540;10.042;2022-08-21T03:44:34;14.80;99.90
4386;DHT22;2207;53.540;10.042;2022-08-21T03:47:01;14.70;99.90
4386;DHT22;2207;53.540;10.042;2022-08-21T03:49:29;14.70;99.90
4386;DHT22;2207;53.540;10.042;2022-08-21T03:51:55;14.60;99.90
4386;DHT22;2207;53.540;10.042;2022-08-21T03:54:22;14.60;99.90
4386;DHT22;2207;53.540;10.042;2022-08-21T03:56:50;14.50;99.90
4386;DHT22;2207;53.540;10.042;2022-08-21T03:59:19;14.60;99.90
4386;DHT22;2207;53.540;10.042;2022-08-21T04:01:53;14.50;99.90
4386;DHT22;2207;53.540;10.042;2022-08-21T04:04:19;14.40;99.90
4386;DHT22;2207;53.540;10.042;2022-08-21T04:06:46;14.40;99.90
4386;DHT22;2207;53.540;10.042;2022-08-21T04:09:13;14.40;99.90
4386;DHT22;2207;53.540;10.042;2022-08-21T04:11:40;14.40;99.90
4386;DHT22;2207;53.540;10.042;2022-08-21T04:14:08;14.40;99.90
4386;DHT22;2207;53.540;10.042;2022-08-21T04:16:34;14.40;99.90
4386;DHT22;2207;53.540;10.042;2022-08-21T04:19:01;14.40;99.90
4386;DHT22;2207;53.540;10.042;2022-08-21T04:21:28;14.40;99.90
4386;DHT22;2207;53.540;10.042;2022-08-21T04:23:56;14.40;99.90
4386;DHT22;2207;53.540;10.042;2022-08-21T04:26:23;14.40;99.90
4386;DHT22;2207;53.540;10.042;2022-08-21T04:28:50;14.40;99.90
4386;DHT22;2207;53.540;10.042;2022-08-21T04:31:19;14.40;99.90
4386;DHT22;2207;53.540;10.042;2022-08-21T04:33:45;14.50;99.90
4386;DHT22;2207;53.540;10.042;2022-08-21T04:36:12;14.50;99.90
4386;DHT22;2207;53.540;10.042;2022-08-21T04:38:39;14.70;99.90
4386;DHT22;2207;53.540;10.042;2022-08-21T04:41:06;14.80;99.90
4386;DHT22;2207;53.540;10.042;2022-08-21T04:43:34;14.90;99.90
4386;DHT22;2207;53.540;10.042;2022-08-21T04:46:01;15.00;99.90
4386;DHT22;2207;53.540;10.042;2022-08-21T04:48:29;15.10;99.90
4386;DHT22;2207;53.540;10.042;2022-08-21T04:50:57;15.20;99.90
4386;DHT22;2207;53.540;10.042;2022-08-21T04:53:28;15.20;99.90
4386;DHT22;2207;53.540;10.042;2022-08-21T04:55:56;15.40;99.90
4386;DHT22;2207;53.540;10.042;2022-08-21T04:58:24;15.40;99.90
4386;DHT22;2207;53.540;10.042;2022-08-21T05:00:52;15.50;99.90
4386;DHT22;2207;53.540;10.042;2022-08-21T05:03:20;15.60;99.90
4386;DHT22;2207;53.540;10.042;2022-08-21T05:05:49;15.70;99.90
4386;DHT22;2207;53.540;10.042;2022-08-21T05:08:19;15.80;99.90
4386;DHT22;2207;53.540;10.042;2022-08-21T05:10:48;15.90;99.90
4386;DHT22;2207;53.540;10.042;2022-08-21T05:13:16;16.00;99.90
4386;DHT22;2207;53.540;10.042;2022-08-21T05:15:43;16.00;99.90
4386;DHT22;2207;53.540;10.042;2022-08-21T05:18:10;16.10;99.90
4386;DHT22;2207;53.540;10.042;2022-08-21T05:20:37;16.20;99.90
4386;DHT22;2207;53.540;10.042;2022-08-21T05:23:08;16.20;99.90
4386;DHT22;2207;53.540;10.042;2022-08-21T05:25:35;16.30;99.90
4386;DHT22;2207;53.540;10.042;2022-08-21T05:28:03;16.50;99.90
4386;DHT22;2207;53.540;10.042;2022-08-21T05:30:31;16.70;99.90
4386;DHT22;2207;53.540;10.042;2022-08-21T05:32:58;16.90;99.90
4386;DHT22;2207;53.540;10.042;2022-08-21T05:35:25;17.20;99.90
4386;DHT22;2207;53.540;10.042;2022-08-21T05:37:52;17.30;99.90
4386;DHT22;2207;53.540;10.042;2022-08-21T05:40:22;17.40;99.90
4386;DHT22;2207;53.540;10.042;2022-08-21T05:42:51;17.50;99.90
4386;DHT22;2207;53.540;10.042;2022-08-21T05:45:19;17.50;99.90
4386;DHT22;2207;53.540;10.042;2022-08-21T05:47:46;17.50;99.90
4386;DHT22;2207;53.540;10.042;2022-08-21T05:50:13;17.60;99.90
4386;DHT22;2207;53.540;10.042;2022-08-21T05:52:40;17.70;99.90
4386;DHT22;2207;53.540;10.042;2022-08-21T05:55:07;17.80;99.90
4386;DHT22;2207;53.540;10.042;2022-08-21T05:57:36;18.00;99.90
4386;DHT22;2207;53.540;10.042;2022-08-21T06:00:06;18.20;99.90
4386;DHT22;2207;53.540;10.042;2022-08-21T06:02:34;18.50;99.90
4386;DHT22;2207;53.540;10.042;2022-08-21T06:05:01;18.60;99.90
4386;DHT22;2207;53.540;10.042;2022-08-21T06:07:28;18.70;99.90
4386;DHT22;2207;53.540;10.042;2022-08-21T06:09:55;18.80;99.90
4386;DHT22;2207;53.540;10.042;2022-08-21T06:12:22;19.10;99.90
4386;DHT22;2207;53.540;10.042;2022-08-21T06:14:50;20.00;99.90
4386;DHT22;2207;53.540;10.042;2022-08-21T06:17:17;21.10;99.90
4386;DHT22;2207;53.540;10.042;2022-08-21T06:19:44;22.40;99.90
4386;DHT22;2207;53.540;10.042;2022-08-21T06:22:11;22.70;99.90
4386;DHT22;2207;53.540;10.042;2022-08-21T06:24:38;23.00;99.90
4386;DHT22;2207;53.540;10.042;2022-08-21T06:27:06;23.30;99.90
4386;DHT22;2207;53.540;10.042;2022-08-21T06:29:33;23.00;99.90
4386;DHT22;2207;53.540;10.042;2022-08-21T06:32:03;24.00;99.90
4386;DHT22;2207;53.540;10.042;2022-08-21T06:34:30;23.70;99.90
4386;DHT22;2207;53.540;10.042;2022-08-21T06:36:57;23.30;99.90
4386;DHT22;2207;53.540;10.042;2022-08-21T06:39:24;24.20;99.90
4386;DHT22;2207;53.540;10.042;2022-08-21T06:41:51;23.80;99.90
4386;DHT22;2207;53.540;10.042;2022-08-21T06:44:18;23.30;99.90
4386;DHT22;2207;53.540;10.042;2022-08-21T06:46:44;24.60;99.90
4386;DHT22;2207;53.540;10.042;2022-08-21T06:49:13;26.90;99.90
4386;DHT22;2207;53.540;10.042;2022-08-21T06:51:40;29.10;99.90
4386;DHT22;2207;53.540;10.042;2022-08-21T06:54:07;29.60;99.90
4386;DHT22;2207;53.540;10.042;2022-08-21T06:56:34;30.00;99.90
4386;DHT22;2207;53.540;10.042;2022-08-21T06:59:03;29.40;99.90
4386;DHT22;2207;53.540;10.042;2022-08-21T07:01:31;28.10;99.90
4386;DHT22;2207;53.540;10.042;2022-08-21T07:03:58;28.70;99.90
4386;DHT22;2207;53.540;10.042;2022-08-21T07:06:26;29.90;99.90
4386;DHT22;2207;53.540;10.042;2022-08-21T07:08:54;29.50;98.80
4386;DHT22;2207;53.540;10.042;2022-08-21T07:11:24;29.90;98.40
4386;DHT22;2207;53.540;10.042;2022-08-21T07:13:52;29.30;96.50
4386;DHT22;2207;53.540;10.042;2022-08-21T07:16:22;28.30;97.70
4386;DHT22;2207;53.540;10.042;2022-08-21T07:18:49;28.60;97.70
4386;DHT22;2207;53.540;10.042;2022-08-21T07:21:16;30.00;96.10
4386;DHT22;2207;53.540;10.042;2022-08-21T07:23:46;31.60;93.40
4386;DHT22;2207;53.540;10.042;2022-08-21T07:26:13;32.20;91.80
4386;DHT22;2207;53.540;10.042;2022-08-21T07:28:40;31.50;90.30
4386;DHT22;2207;53.540;10.042;2022-08-21T07:31:09;30.00;91.40
4386;DHT22;2207;53.540;10.042;2022-08-21T07:33:39;30.60;91.50
4386;DHT22;2207;53.540;10.042;2022-08-21T07:36:07;31.90;89.50
4386;DHT22;2207;53.540;10.042;2022-08-21T07:38:34;32.80;85.80
4386;DHT22;2207;53.540;10.042;2022-08-21T07:41:07;33.40;82.60
4386;DHT22;2207;53.540;10.042;2022-08-21T07:43:36;33.90;80.00
4386;DHT22;2207;53.540;10.042;2022-08-21T07:46:03;34.30;78.00
4386;DHT22;2207;53.540;10.042;2022-08-21T07:48:30;34.60;76.20
4386;DHT22;2207;53.540;10.042;2022-08-21T07:50:58;34.70;74.40
4386;DHT22;2207;53.540;10.042;2022-08-21T07:53:28;34.50;73.00
4386;DHT22;2207;53.540;10.042;2022-08-21T07:55:56;34.30;71.80
4386;DHT22;2207;53.540;10.042;2022-08-21T07:58:24;34.30;71.20
4386;DHT22;2207;53.540;10.042;2022-08-21T08:00:51;33.80;70.60
4386;DHT22;2207;53.540;10.042;2022-08-21T08:03:18;31.60;72.00
4386;DHT22;2207;53.540;10.042;2022-08-21T08:05:45;29.50;74.90
4386;DHT22;2207;53.540;10.042;2022-08-21T08:08:12;27.90;78.70
4386;DHT22;2207;53.540;10.042;2022-08-21T08:10:38;26.80;82.50
4386;DHT22;2207;53.540;10.042;2022-08-21T08:13:05;26.10;86.10
4386;DHT22;2207;53.540;10.042;2022-08-21T08:15:33;25.50;89.30
4386;DHT22;2207;53.540;10.042;2022-08-21T08:18:00;25.30;90.80
4386;DHT22;2207;53.540;10.042;2022-08-21T08:20:27;25.10;92.00
4386;DHT22;2207;53.540;10.042;2022-08-21T08:22:54;24.80;92.40
4386;DHT22;2207;53.540;10.042;2022-08-21T08:25:21;24.60;92.90
4386;DHT22;2207;53.540;10.042;2022-08-21T08:27:49;24.50;93.20
4386;DHT22;2207;53.540;10.042;2022-08-21T08:30:16;24.50;93.50
4386;DHT22;2207;53.540;10.042;2022-08-21T08:32:46;24.40;93.60
4386;DHT22;2207;53.540;10.042;2022-08-21T08:35:12;24.50;93.80
4386;DHT22;2207;53.540;10.042;2022-08-21T08:37:40;24.60;94.00
4386;DHT22;2207;53.540;10.042;2022-08-21T08:40:09;24.60;94.20
4386;DHT22;2207;53.540;10.042;2022-08-21T08:42:36;24.80;94.20
4386;DHT22;2207;53.540;10.042;2022-08-21T08:45:04;24.90;93.90
4386;DHT22;2207;53.540;10.042;2022-08-21T08:47:32;24.90;93.90
4386;DHT22;2207;53.540;10.042;2022-08-21T08:50:03;25.00;94.00
4386;DHT22;2207;53.540;10.042;2022-08-21T08:52:31;25.00;94.10
4386;DHT22;2207;53.540;10.042;2022-08-21T08:55:01;25.10;94.20
4386;DHT22;2207;53.540;10.042;2022-08-21T08:57:28;25.20;94.00
4386;DHT22;2207;53.540;10.042;2022-08-21T08:59:57;25.10;94.10
4386;DHT22;2207;53.540;10.042;2022-08-21T09:02:24;25.20;94.40
4386;DHT22;2207;53.540;10.042;2022-08-21T09:04:53;25.20;94.50
4386;DHT22;2207;53.540;10.042;2022-08-21T09:07:22;25.10;94.70
4386;DHT22;2207;53.540;10.042;2022-08-21T09:09:55;25.00;94.80
4386;DHT22;2207;53.540;10.042;2022-08-21T09:12:33;25.00;95.10
4386;DHT22;2207;53.540;10.042;2022-08-21T09:15:04;25.00;95.40
4386;DHT22;2207;53.540;10.042;2022-08-21T09:17:36;25.00;95.50
4386;DHT22;2207;53.540;10.042;2022-08-21T09:20:08;25.00;95.50
4386;DHT22;2207;53.540;10.042;2022-08-21T09:22:39;25.00;95.50
4386;DHT22;2207;53.540;10.042;2022-08-21T09:25:12;24.90;95.50
4386;DHT22;2207;53.540;10.042;2022-08-21T09:27:40;24.90;95.30
4386;DHT22;2207;53.540;10.042;2022-08-21T09:30:09;24.80;95.10
4386;DHT22;2207;53.540;10.042;2022-08-21T09:32:36;24.80;95.50
4386;DHT22;2207;53.540;10.042;2022-08-21T09:35:04;24.90;95.10
4386;DHT22;2207;53.540;10.042;2022-08-21T09:37:33;25.10;95.00
4386;DHT22;2207;53.540;10.042;2022-08-21T09:40:02;25.20;94.60
4386;DHT22;2207;53.540;10.042;2022-08-21T09:42:30;25.10;94.40
4386;DHT22;2207;53.540;10.042;2022-08-21T09:45:12;25.10;94.40
4386;DHT22;2207;53.540;10.042;2022-08-21T09:47:40;25.00;94.40
4386;DHT22;2207;53.540;10.042;2022-08-21T09:50:07;24.90;94.60
4386;DHT22;2207;53.540;10.042;2022-08-21T09:52:34;24.90;94.70
4386;DHT22;2207;53.540;10.042;2022-08-21T09:55:02;24.90;94.70
4386;DHT22;2207;53.540;10.042;2022-08-21T09:57:49;24.90;94.80
4386;DHT22;2207;53.540;10.042;2022-08-21T10:00:17;24.90;94.90
4386;DHT22;2207;53.540;10.042;2022-08-21T10:02:44;24.90;95.30
4386;DHT22;2207;53.540;10.042;2022-08-21T10:05:15;25.00;95.40
4386;DHT22;2207;53.540;10.042;2022-08-21T10:07:43;25.10;95.40
4386;DHT22;2207;53.540;10.042;2022-08-21T10:10:15;25.10;95.40
4386;DHT22;2207;53.540;10.042;2022-08-21T10:12:44;25.10;95.30
4386;DHT22;2207;53.540;10.042;2022-08-21T10:15:14;25.20;95.40
4386;DHT22;2207;53.540;10.042;2022-08-21T10:17:44;25.30;95.40
4386;DHT22;2207;53.540;10.042;2022-08-21T10:20:14;25.30;95.30
4386;DHT22;2207;53.540;10.042;2022-08-21T10:22:46;25.30;95.50
4386;DHT22;2207;53.540;10.042;2022-08-21T10:25:19;25.30;95.50
4386;DHT22;2207;53.540;10.042;2022-08-21T10:27:50;25.10;95.60
4386;DHT22;2207;53.540;10.042;2022-08-21T10:30:21;24.90;95.90
4386;DHT22;2207;53.540;10.042;2022-08-21T10:32:54;24.70;96.30
4386;DHT22;2207;53.540;10.042;2022-08-21T10:35:27;24.50;96.70
4386;DHT22;2207;53.540;10.042;2022-08-21T10:41:20;25.10;96.10
4386;DHT22;2207;53.540;10.042;2022-08-21T10:43:56;25.30;95.50
4386;DHT22;2207;53.540;10.042;2022-08-21T10:46:36;25.30;95.50
4386;DHT22;2207;53.540;10.042;2022-08-21T10:49:14;25.20;95.30
4386;DHT22;2207;53.540;10.042;2022-08-21T10:51:53;25.10;95.40
4386;DHT22;2207;53.540;10.042;2022-08-21T10:54:29;25.10;95.40
4386;DHT22;2207;53.540;10.042;2022-08-21T10:57:06;25.10;95.30
4386;DHT22;2207;53.540;10.042;2022-08-21T10:59:46;25.00;95.50
4386;DHT22;2207;53.540;10.042;2022-08-21T11:02:18;25.00;95.20
4386;DHT22;2207;53.540;10.042;2022-08-21T11:04:52;25.10;95.50
4386;DHT22;2207;53.540;10.042;2022-08-21T11:07:26;25.10;95.00
4386;DHT22;2207;53.540;10.042;2022-08-21T11:09:57;25.10;94.80
4386;DHT22;2207;53.540;10.042;2022-08-21T11:12:31;25.20;94.10
4386;DHT22;2207;53.540;10.042;2022-08-21T11:15:07;25.10;93.40
4386;DHT22;2207;53.540;10.042;2022-08-21T11:17:45;25.10;92.90
4386;DHT22;2207;53.540;10.042;2022-08-21T11:20:21;25.10;92.60
4386;DHT22;2207;53.540;10.042;2022-08-21T11:22:52;25.10;92.20
4386;DHT22;2207;53.540;10.042;2022-08-21T11:25:27;25.10;92.00
4386;DHT22;2207;53.540;10.042;2022-08-21T11:28:01;25.20;91.70
4386;DHT22;2207;53.540;10.042;2022-08-21T11:30:39;25.20;91.20
4386;DHT22;2207;53.540;10.042;2022-08-21T11:33:24;25.30;91.00
4386;DHT22;2207;53.540;10.042;2022-08-21T11:35:57;25.20;90.80
4386;DHT22;2207;53.540;10.042;2022-08-21T11:38:34;25.10;90.50
4386;DHT22;2207;53.540;10.042;2022-08-21T11:41:16;25.10;90.20
4386;DHT22;2207;53.540;10.042;2022-08-21T11:43:48;25.10;90.00
4386;DHT22;2207;53.540;10.042;2022-08-21T11:46:27;25.10;90.30
4386;DHT22;2207;53.540;10.042;2022-08-21T11:49:10;25.00;89.00
4386;DHT22;2207;53.540;10.042;2022-08-21T11:51:46;25.00;88.60
4386;DHT22;2207;53.540;10.042;2022-08-21T11:54:21;25.10;88.50
4386;DHT22;2207;53.540;10.042;2022-08-21T11:56:54;25.30;87.70
4386;DHT22;2207;53.540;10.042;2022-08-21T11:59:29;25.40;86.90
4386;DHT22;2207;53.540;10.042;2022-08-21T12:01:59;25.30;87.00
4386;DHT22;2207;53.540;10.042;2022-08-21T12:04:29;25.30;87.50
4386;DHT22;2207;53.540;10.042;2022-08-21T12:07:10;25.20;87.40
4386;DHT22;2207;53.540;10.042;2022-08-21T12:09:37;25.20;87.30
4386;DHT22;2207;53.540;10.042;2022-08-21T12:12:10;25.20;87.20
4386;DHT22;2207;53.540;10.042;2022-08-21T12:14:42;25.20;87.10
4386;DHT22;2207;53.540;10.042;2022-08-21T12:17:17;25.10;87.30
4386;DHT22;2207;53.540;10.042;2022-08-21T12:19:44;25.10;86.50
4386;DHT22;2207;53.540;10.042;2022-08-21T12:22:11;25.00;86.70
4386;DHT22;2207;53.540;10.042;2022-08-21T12:24:40;25.00;86.50
4386;DHT22;2207;53.540;10.042;2022-08-21T12:27:17;25.00;86.40
4386;DHT22;2207;53.540;10.042;2022-08-21T12:29:48;25.10;86.50
4386;DHT22;2207;53.540;10.042;2022-08-21T12:32:22;25.10;86.10
4386;DHT22;2207;53.540;10.042;2022-08-21T12:34:50;25.20;84.80
4386;DHT22;2207;53.540;10.042;2022-08-21T12:37:27;25.20;83.70
4386;DHT22;2207;53.540;10.042;2022-08-21T12:39:58;25.20;83.30
4386;DHT22;2207;53.540;10.042;2022-08-21T12:42:28;25.30;83.10
4386;DHT22;2207;53.540;10.042;2022-08-21T12:45:00;25.50;83.00
4386;DHT22;2207;53.540;10.042;2022-08-21T12:47:29;25.60;82.70
4386;DHT22;2207;53.540;10.042;2022-08-21T12:49:58;25.60;82.50
4386;DHT22;2207;53.540;10.042;2022-08-21T12:52:29;25.70;82.80
4386;DHT22;2207;53.540;10.042;2022-08-21T12:54:56;25.60;83.10
4386;DHT22;2207;53.540;10.042;2022-08-21T12:57:24;25.40;83.70
4386;DHT22;2207;53.540;10.042;2022-08-21T12:59:55;25.30;84.40
4386;DHT22;2207;53.540;10.042;2022-08-21T13:02:24;25.10;85.00
4386;DHT22;2207;53.540;10.042;2022-08-21T13:04:51;25.00;85.50
4386;DHT22;2207;53.540;10.042;2022-08-21T13:07:22;25.10;85.50
4386;DHT22;2207;53.540;10.042;2022-08-21T13:09:50;25.20;85.20
4386;DHT22;2207;53.540;10.042;2022-08-21T13:12:19;25.30;84.60
4386;DHT22;2207;53.540;10.042;2022-08-21T13:14:46;25.30;83.90
4386;DHT22;2207;53.540;10.042;2022-08-21T13:17:14;25.40;83.20
4386;DHT22;2207;53.540;10.042;2022-08-21T13:19:42;25.40;82.80
4386;DHT22;2207;53.540;10.042;2022-08-21T13:22:18;25.30;82.70
4386;DHT22;2207;53.540;10.042;2022-08-21T13:24:46;25.20;82.60
4386;DHT22;2207;53.540;10.042;2022-08-21T13:27:17;25.10;82.50
4386;DHT22;2207;53.540;10.042;2022-08-21T13:29:44;25.10;82.70
4386;DHT22;2207;53.540;10.042;2022-08-21T13:32:17;25.20;82.50
4386;DHT22;2207;53.540;10.042;2022-08-21T13:34:46;25.20;82.30
4386;DHT22;2207;53.540;10.042;2022-08-21T13:37:13;25.20;82.30
4386;DHT22;2207;53.540;10.042;2022-08-21T13:39:40;25.20;82.50
4386;DHT22;2207;53.540;10.042;2022-08-21T13:42:08;25.00;83.00
4386;DHT22;2207;53.540;10.042;2022-08-21T13:44:41;24.80;83.30
4386;DHT22;2207;53.540;10.042;2022-08-21T13:47:09;24.80;83.60
4386;DHT22;2207;53.540;10.042;2022-08-21T13:49:37;24.80;83.60
4386;DHT22;2207;53.540;10.042;2022-08-21T13:52:12;24.80;83.50
4386;DHT22;2207;53.540;10.042;2022-08-21T13:54:41;24.90;83.40
4386;DHT22;2207;53.540;10.042;2022-08-21T13:57:15;25.00;83.30
4386;DHT22;2207;53.540;10.042;2022-08-21T13:59:43;25.10;83.10
4386;DHT22;2207;53.540;10.042;2022-08-21T14:02:10;25.00;82.80
4386;DHT22;2207;53.540;10.042;2022-08-21T14:04:39;25.00;82.60
4386;DHT22;2207;53.540;10.042;2022-08-21T14:07:15;24.90;82.40
4386;DHT22;2207;53.540;10.042;2022-08-21T14:09:43;24.80;82.40
4386;DHT22;2207;53.540;10.042;2022-08-21T14:12:12;24.90;82.50
4386;DHT22;2207;53.540;10.042;2022-08-21T14:14:39;25.10;82.30
4386;DHT22;2207;53.540;10.042;2022-08-21T14:17:07;25.20;81.90
4386;DHT22;2207;53.540;10.042;2022-08-21T14:19:36;25.30;81.50
4386;DHT22;2207;53.540;10.042;2022-08-21T14:24:46;25.50;80.70
4386;DHT22;2207;53.540;10.042;2022-08-21T14:27:15;25.50;80.50
4386;DHT22;2207;53.540;10.042;2022-08-21T14:29:42;25.50;80.40
4386;DHT22;2207;53.540;10.042;2022-08-21T14:32:10;25.50;80.30
4386;DHT22;2207;53.540;10.042;2022-08-21T14:34:38;25.60;80.30
4386;DHT22;2207;53.540;10.042;2022-08-21T14:37:05;25.60;80.30
4386;DHT22;2207;53.540;10.042;2022-08-21T14:39:32;25.60;80.40
4386;DHT22;2207;53.540;10.042;2022-08-21T14:42:00;25.60;80.40
4386;DHT22;2207;53.540;10.042;2022-08-21T14:44:27;25.60;80.40
4386;DHT22;2207;53.540;10.042;2022-08-21T14:46:54;25.60;80.00
4386;DHT22;2207;53.540;10.042;2022-08-21T14:49:24;25.60;79.60
4386;DHT22;2207;53.540;10.042;2022-08-21T14:51:52;25.60;79.50
4386;DHT22;2207;53.540;10.042;2022-08-21T14:54:22;25.70;79.30
4386;DHT22;2207;53.540;10.042;2022-08-21T14:56:49;25.80;79.00
4386;DHT22;2207;53.540;10.042;2022-08-21T14:59:17;25.80;78.90
4386;DHT22;2207;53.540;10.042;2022-08-21T15:01:45;25.80;78.70
4386;DHT22;2207;53.540;10.042;2022-08-21T15:04:11;25.90;78.80
4386;DHT22;2207;53.540;10.042;2022-08-21T15:06:38;26.00;78.90
4386;DHT22;2207;53.540;10.042;2022-08-21T15:09:05;26.10;78.80
4386;DHT22;2207;53.540;10.042;2022-08-21T15:11:32;26.10;78.90
4386;DHT22;2207;53.540;10.042;2022-08-21T15:14:00;26.10;78.90
4386;DHT22;2207;53.540;10.042;2022-08-21T15:16:29;26.10;78.80
4386;DHT22;2207;53.540;10.042;2022-08-21T15:18:56;26.10;78.80
4386;DHT22;2207;53.540;10.042;2022-08-21T15:21:23;26.20;78.80
4386;DHT22;2207;53.540;10.042;2022-08-21T15:23:49;26.20;78.50
4386;DHT22;2207;53.540;10.042;2022-08-21T15:26:22;26.20;78.30
4386;DHT22;2207;53.540;10.042;2022-08-21T15:28:49;26.40;78.30
4386;DHT22;2207;53.540;10.042;2022-08-21T15:31:15;26.40;78.00
4386;DHT22;2207;53.540;10.042;2022-08-21T15:33:44;26.40;77.90
4386;DHT22;2207;53.540;10.042;2022-08-21T15:36:10;26.40;77.80
4386;DHT22;2207;53.540;10.042;2022-08-21T15:38:37;26.40;77.90
4386;DHT22;2207;53.540;10.042;2022-08-21T15:41:04;26.40;78.00
4386;DHT22;2207;53.540;10.042;2022-08-21T15:43:40;26.40;78.00
4386;DHT22;2207;53.540;10.042;2022-08-21T15:46:07;26.40;77.90
4386;DHT22;2207;53.540;10.042;2022-08-21T15:48:36;26.40;77.60
4386;DHT22;2207;53.540;10.042;2022-08-21T15:51:04;26.60;77.50
4386;DHT22;2207;53.540;10.042;2022-08-21T15:53:31;26.60;77.10
4386;DHT22;2207;53.540;10.042;2022-08-21T15:56:02;26.70;76.80
4386;DHT22;2207;53.540;10.042;2022-08-21T15:58:29;26.70;76.80
4386;DHT22;2207;53.540;10.042;2022-08-21T16:00:56;26.70;76.60